createdAt,value
2022-08-12T00:00:12.942Z,0.5
2022-08-12T00:03:20.710Z,0.65
2022-08-12T00:06:12.934Z,0.4
2022-08-12T00:09:13.045Z,0.35
2022-08-12T00:12:12.940Z,0.55
2022-08-12T00:15:13.018Z,0.45
2022-08-12T00:18:12.948Z,0.35
2022-08-12T00:21:13.043Z,0.5
2022-08-12T00:24:13.649Z,0.35
2022-08-12T00:27:12.995Z,0.1
2022-08-12T00:30:13.010Z,0.4
2022-08-12T00:33:13.823Z,0.35
2022-08-12T00:36:30.671Z,0.55
2022-08-12T00:39:13.161Z,0.45
2022-08-12T00:42:13.006Z,0.45
2022-08-12T00:45:12.953Z,0.65
2022-08-12T00:48:13.016Z,0.7
2022-08-12T00:51:13.016Z,0.65
2022-08-12T00:54:13.003Z,0.6
2022-08-12T00:57:13.052Z,0.55
2022-08-12T01:00:13.061Z,0.65
2022-08-12T01:03:12.980Z,0.35
2022-08-12T01:06:12.995Z,0.7
2022-08-12T01:09:13.037Z,0.55
2022-08-12T01:12:13.067Z,0.6
2022-08-12T01:15:13.002Z,0.55
2022-08-12T01:18:13.027Z,0.35
2022-08-12T01:21:13.167Z,0.65
2022-08-12T01:24:23.165Z,0.75
2022-08-12T01:27:13.034Z,0.5
2022-08-12T01:30:13.023Z,0.75
2022-08-12T01:33:13.057Z,0.8
2022-08-12T01:36:13.075Z,0.8
2022-08-12T01:39:13.156Z,0.75
2022-08-12T01:42:13.079Z,0.8
2022-08-12T01:45:13.015Z,0.6
2022-08-12T01:48:13.147Z,0.65
2022-08-12T01:52:04.464Z,0.6
2022-08-12T01:54:13.097Z,0.75
2022-08-12T01:57:13.075Z,0.7
2022-08-12T02:00:13.065Z,0.65
2022-08-12T02:03:13.130Z,0.8
2022-08-12T02:06:13.147Z,0.5
2022-08-12T02:09:13.102Z,0.6
2022-08-12T02:12:13.043Z,0.8
2022-08-12T02:15:13.144Z,0.75
2022-08-12T02:18:13.059Z,0.75
2022-08-12T02:21:13.096Z,0.95
2022-08-12T02:24:13.042Z,0.55
2022-08-12T02:27:13.092Z,0.8
2022-08-12T02:30:13.100Z,0.45
2022-08-12T02:33:13.068Z,0.8
2022-08-12T02:36:13.099Z,0.7
2022-08-12T02:39:13.167Z,0.65
2022-08-12T02:42:13.092Z,0.6
2022-08-12T02:45:13.122Z,0.7
2022-08-12T02:48:13.063Z,0.75
2022-08-12T02:51:13.092Z,0.4
2022-08-12T02:54:13.164Z,0.65
2022-08-12T02:57:13.036Z,0.6
2022-08-12T03:00:13.152Z,0.35
2022-08-12T03:03:13.156Z,0.25
2022-08-12T03:06:13.164Z,0.45
2022-08-12T03:09:16.606Z,0.25
2022-08-12T03:12:20.083Z,0.25
2022-08-12T03:15:13.139Z,0.45
2022-08-12T03:18:24.308Z,0.4
2022-08-12T03:21:13.167Z,0.25
2022-08-12T03:24:13.164Z,0.35
2022-08-12T03:27:13.188Z,0.3
2022-08-12T03:30:13.118Z,0.4
2022-08-12T03:33:13.350Z,0.25
2022-08-12T03:36:13.162Z,0.1
2022-08-12T03:39:13.213Z,0.25
2022-08-12T03:42:13.222Z,0.25
2022-08-12T03:45:13.259Z,0.2
2022-08-12T03:48:18.839Z,0.25
2022-08-12T03:51:13.179Z,0.2
2022-08-12T03:54:13.222Z,0.15
2022-08-12T03:57:13.173Z,0.05
2022-08-12T04:00:23.887Z,0
2022-08-12T04:03:14.070Z,0
2022-08-12T04:06:13.173Z,0.2
2022-08-12T04:09:17.502Z,0.35
2022-08-12T04:12:13.220Z,0.3
2022-08-12T04:15:13.152Z,0.2
2022-08-12T04:18:13.177Z,0.25
2022-08-12T04:21:13.178Z,0.4
2022-08-12T04:24:13.189Z,0.2
2022-08-12T04:27:13.244Z,0.1
2022-08-12T04:30:31.715Z,0.1
2022-08-12T04:33:13.187Z,0.25
2022-08-12T04:36:13.199Z,0.2
2022-08-12T04:39:13.257Z,0.1
2022-08-12T04:42:13.238Z,0
2022-08-12T04:45:19.245Z,0
2022-08-12T04:48:13.605Z,0
2022-08-12T04:51:13.223Z,0
2022-08-12T04:54:18.125Z,0
2022-08-12T04:57:13.218Z,0
2022-08-12T05:00:13.239Z,0
2022-08-12T05:03:13.269Z,0
2022-08-12T05:06:20.747Z,0
2022-08-12T05:09:14.562Z,0.3
2022-08-12T05:12:13.233Z,0.25
2022-08-12T05:15:19.965Z,0.35
2022-08-12T05:18:19.810Z,0
2022-08-12T05:21:13.238Z,0
2022-08-12T05:24:13.209Z,0.1
2022-08-12T05:27:13.242Z,0
2022-08-12T05:30:13.297Z,0
2022-08-12T05:33:13.213Z,0
2022-08-12T05:36:13.263Z,0
2022-08-12T05:39:13.362Z,0
2022-08-12T05:42:13.280Z,0
2022-08-12T05:45:13.382Z,0
2022-08-12T05:48:13.317Z,0.35
2022-08-12T05:51:13.323Z,0.35
2022-08-12T05:54:13.289Z,0.6
2022-08-12T05:57:13.244Z,0.6
2022-08-12T06:00:13.270Z,0.65
2022-08-12T06:03:13.423Z,0.5
2022-08-12T06:06:13.268Z,0.55
2022-08-12T06:09:13.358Z,0.4
2022-08-12T06:12:13.298Z,0.35
2022-08-12T06:15:13.343Z,0.45
2022-08-12T06:18:17.278Z,0.55
2022-08-12T06:21:13.322Z,0.7
2022-08-12T06:24:13.282Z,0.75
2022-08-12T06:27:13.283Z,0.5
2022-08-12T06:30:24.194Z,0.65
2022-08-12T06:33:21.330Z,0.2
2022-08-12T06:36:21.036Z,0.6
2022-08-12T06:39:16.376Z,0.4
2022-08-12T06:42:31.485Z,1.05
2022-08-12T06:45:13.544Z,1.25
2022-08-12T06:48:13.340Z,0.95
2022-08-12T06:51:13.319Z,1.2
2022-08-12T06:54:18.685Z,1.4
2022-08-12T06:57:57.763Z,1.3
2022-08-12T07:00:13.323Z,0.9
2022-08-12T07:03:22.984Z,1.15
2022-08-12T07:06:13.311Z,0.75
2022-08-12T07:09:56.242Z,0.9
2022-08-12T07:12:13.372Z,0.35
2022-08-12T07:15:13.391Z,0.75
2022-08-12T07:18:13.389Z,1
2022-08-12T07:21:13.364Z,0.5
2022-08-12T07:24:13.358Z,1.05
2022-08-12T07:27:13.330Z,0.7
2022-08-12T07:30:13.376Z,0.85
2022-08-12T07:33:13.415Z,0.9
2022-08-12T07:36:13.349Z,1.25
2022-08-12T07:39:13.465Z,1.3
2022-08-12T07:42:13.466Z,2
2022-08-12T07:45:13.468Z,1.5
2022-08-12T07:48:13.371Z,1.55
2022-08-12T07:51:25.112Z,2.05
2022-08-12T07:54:13.398Z,1.8
2022-08-12T07:57:13.398Z,1.45
2022-08-12T08:00:13.443Z,1.95
2022-08-12T08:03:13.406Z,1.65
2022-08-12T08:06:18.925Z,1.35
2022-08-12T08:09:13.391Z,1.4
2022-08-12T08:12:19.646Z,1.7
2022-08-12T08:15:13.404Z,1.55
2022-08-12T08:18:25.653Z,1.75
2022-08-12T08:21:13.410Z,1.7
2022-08-12T08:24:14.050Z,1.8
2022-08-12T08:27:13.407Z,1.9
2022-08-12T08:30:13.478Z,2
2022-08-12T08:33:23.278Z,1.75
2022-08-12T08:36:24.102Z,1.85
2022-08-12T08:39:13.629Z,1.6
2022-08-12T08:42:20.307Z,0.8
2022-08-12T08:45:13.488Z,1.05
2022-08-12T08:48:13.512Z,1.5
2022-08-12T08:51:13.436Z,1.4
2022-08-12T08:54:13.468Z,1.1
2022-08-12T08:57:13.438Z,1.7
2022-08-12T09:00:16.333Z,2.1
2022-08-12T09:04:21.648Z,0.65
2022-08-12T09:06:18.040Z,1.9
2022-08-12T09:09:14.634Z,1.45
2022-08-12T09:12:14.159Z,1.7
2022-08-12T09:15:19.193Z,1.85
2022-08-12T09:18:15.344Z,2.35
2022-08-12T09:21:14.534Z,2.5
2022-08-12T09:24:16.248Z,2.7
2022-08-12T09:27:13.420Z,2.15
2022-08-12T09:30:15.341Z,2
2022-08-12T09:34:27.185Z,2.15
2022-08-12T09:36:15.398Z,1.15
2022-08-12T09:40:02.908Z,1.9
2022-08-12T09:42:33.042Z,1
2022-08-12T09:45:22.938Z,1.55
2022-08-12T09:48:19.718Z,1.1
2022-08-12T09:51:22.313Z,2.1
2022-08-12T09:54:31.299Z,1.65
2022-08-12T09:58:08.609Z,1.35
2022-08-12T10:00:28.183Z,2.05
2022-08-12T10:03:31.695Z,1.65
2022-08-12T10:06:20.649Z,1.65
2022-08-12T10:09:14.394Z,1.1
2022-08-12T10:12:14.125Z,1.75
2022-08-12T10:16:01.104Z,1.95
2022-08-12T10:18:13.660Z,1.75
2022-08-12T10:21:13.543Z,1.75
2022-08-12T10:24:13.647Z,1.75
2022-08-12T10:27:15.815Z,1.3
2022-08-12T10:30:39.169Z,1.35
2022-08-12T10:33:22.966Z,1.4
2022-08-12T10:36:13.584Z,1.85
2022-08-12T10:40:00.466Z,1.2
2022-08-12T10:42:13.669Z,0.75
2022-08-12T10:45:18.409Z,1.95
2022-08-12T10:48:20.799Z,1.75
2022-08-12T10:51:52.217Z,1.1
2022-08-12T10:54:14.075Z,1.25
2022-08-12T10:57:50.470Z,1.8
2022-08-12T11:00:32.175Z,1
2022-08-12T11:04:21.443Z,2.25
2022-08-12T11:07:04.816Z,1.6
2022-08-12T11:09:17.019Z,0.65
2022-08-12T11:12:36.293Z,0.7
2022-08-12T11:15:21.508Z,1.25
2022-08-12T11:18:19.101Z,0.8
2022-08-12T11:21:16.953Z,1.95
2022-08-12T11:24:18.890Z,1.65
2022-08-12T11:27:14.252Z,1.7
2022-08-12T11:30:30.851Z,0.8
2022-08-12T11:33:24.293Z,1.45
2022-08-12T11:36:16.584Z,2.1
2022-08-12T11:39:13.727Z,2.4
2022-08-12T11:42:13.775Z,1.8
2022-08-12T11:45:17.945Z,1.8
2022-08-12T11:48:16.381Z,2.05
2022-08-12T11:51:14.463Z,3
2022-08-12T11:54:15.704Z,1.35
2022-08-12T11:58:01.400Z,1.2
2022-08-12T12:03:18.098Z,1.65
2022-08-12T12:06:18.029Z,1.3
2022-08-12T12:09:17.447Z,1.2
2022-08-12T12:12:13.708Z,2.4
2022-08-12T12:15:14.305Z,2.6
2022-08-12T12:18:13.796Z,1.15
2022-08-12T12:21:13.667Z,1.55
2022-08-12T12:24:13.616Z,1.2
2022-08-12T12:27:19.437Z,2.4
2022-08-12T12:30:29.645Z,2.7
2022-08-12T12:33:18.760Z,1.95
2022-08-12T12:36:23.056Z,1.65
2022-08-12T12:39:13.686Z,1.8
2022-08-12T12:42:42.248Z,2.5
2022-08-12T12:45:19.253Z,2.3
2022-08-12T12:48:13.634Z,1
2022-08-12T12:51:13.680Z,0.9
2022-08-12T12:54:18.732Z,3.25
2022-08-12T12:57:13.919Z,1.25
2022-08-12T13:00:13.633Z,2.15
2022-08-12T13:03:19.226Z,2.2
2022-08-12T13:06:14.244Z,1.45
2022-08-12T13:09:14.779Z,2.5
2022-08-12T13:12:13.644Z,1.95
2022-08-12T13:15:42.953Z,1.5
2022-08-12T13:18:17.330Z,2.15
2022-08-12T13:21:33.786Z,1.4
2022-08-12T13:24:13.696Z,1.1
2022-08-12T13:27:13.722Z,2.6
2022-08-12T13:30:13.693Z,1.95
2022-08-12T13:33:18.583Z,1.65
2022-08-12T13:36:19.922Z,1.8
2022-08-12T13:39:17.155Z,1.3
2022-08-12T13:42:15.310Z,2.15
2022-08-12T13:45:14.406Z,2.5
2022-08-12T13:48:19.789Z,2.15
2022-08-12T13:51:13.695Z,1.8
2022-08-12T13:54:15.067Z,1.4
2022-08-12T13:57:18.045Z,0.7
2022-08-12T14:00:15.230Z,1.9
2022-08-12T14:03:13.799Z,2.15
2022-08-12T14:06:16.400Z,2
2022-08-12T14:09:19.896Z,1.25
2022-08-12T14:12:17.260Z,2.45
2022-08-12T14:15:13.781Z,2
2022-08-12T14:18:14.100Z,1.55
2022-08-12T14:21:22.427Z,1.55
2022-08-12T14:24:15.674Z,1.2
2022-08-12T14:27:13.772Z,1.8
2022-08-12T14:30:23.972Z,2.45
2022-08-12T14:33:13.796Z,1.35
2022-08-12T14:36:13.866Z,2.1
2022-08-12T14:39:13.800Z,1.45
2022-08-12T14:42:13.783Z,1.25
2022-08-12T14:45:13.789Z,1.3
2022-08-12T14:48:13.733Z,1.65
2022-08-12T14:52:54.939Z,1.75
2022-08-12T14:57:19.797Z,1.4
2022-08-12T15:00:13.764Z,2
2022-08-12T15:03:16.041Z,0.9
2022-08-12T15:06:40.074Z,1.3
2022-08-12T15:09:13.782Z,0.7
2022-08-12T15:12:15.568Z,1.55
2022-08-12T15:15:13.813Z,1.6
2022-08-12T15:18:14.375Z,1.35
2022-08-12T15:21:18.512Z,1
2022-08-12T15:24:13.808Z,1.3
2022-08-12T15:27:13.796Z,3.05
2022-08-12T15:30:13.821Z,1.9
2022-08-12T15:33:21.128Z,1.8
2022-08-12T15:36:13.867Z,0.9
2022-08-12T15:39:18.354Z,1.4
2022-08-12T15:42:13.793Z,1.35
2022-08-12T15:45:21.370Z,1.15
2022-08-12T15:48:20.381Z,1.25
2022-08-12T15:51:16.461Z,1.05
2022-08-12T15:54:22.663Z,2.15
2022-08-12T15:57:18.117Z,1.75
2022-08-12T16:00:22.379Z,1
2022-08-12T16:03:19.328Z,2
2022-08-12T16:06:30.942Z,1.35
2022-08-12T16:09:14.275Z,1.55
2022-08-12T16:12:15.722Z,2
2022-08-12T16:15:14.386Z,1.8
2022-08-12T16:18:20.508Z,1.3
2022-08-12T16:21:50.888Z,1.8
2022-08-12T16:24:15.314Z,0.9
2022-08-12T16:27:14.469Z,1.35
2022-08-12T16:30:13.851Z,1.75
2022-08-12T16:33:16.309Z,1.65
2022-08-12T16:36:19.151Z,1.05
2022-08-12T16:39:16.488Z,1.65
2022-08-12T16:42:13.848Z,1.4
2022-08-12T16:45:14.789Z,1.35
2022-08-12T16:48:34.351Z,0.55
2022-08-12T16:51:14.347Z,1.1
2022-08-12T16:54:17.344Z,2.1
2022-08-12T16:57:13.955Z,1.6
2022-08-12T17:00:14.159Z,1.4
2022-08-12T17:03:23.962Z,3.25
2022-08-12T17:06:19.778Z,2.25
2022-08-12T17:09:18.434Z,1.55
2022-08-12T17:12:16.392Z,2.3
2022-08-12T17:15:51.522Z,1.7
2022-08-12T17:18:41.210Z,2.05
2022-08-12T17:21:14.246Z,2.3
2022-08-12T17:24:16.114Z,3.15
2022-08-12T17:27:17.355Z,1.8
2022-08-12T17:30:14.324Z,2.2
2022-08-12T17:33:24.738Z,1.35
2022-08-12T17:36:13.943Z,1.4
2022-08-12T17:39:14.985Z,1.4
2022-08-12T17:42:31.174Z,1.15
2022-08-12T17:45:19.843Z,1.25
2022-08-12T17:48:18.443Z,1.75
2022-08-12T17:51:17.069Z,1.7
2022-08-12T17:54:13.927Z,2.95
2022-08-12T17:57:17.548Z,1.8
2022-08-12T18:00:13.960Z,1.8
2022-08-12T18:03:57.437Z,1.55
2022-08-12T18:06:15.535Z,1.55
2022-08-12T18:09:15.001Z,1.6
2022-08-12T18:12:14.036Z,0.95
2022-08-12T18:15:21.461Z,1.65
2022-08-12T18:18:19.446Z,1.5
2022-08-12T18:21:13.983Z,1.15
2022-08-12T18:24:21.538Z,1.2
2022-08-12T18:27:30.398Z,1.25
2022-08-12T18:30:21.180Z,1.3
2022-08-12T18:33:15.648Z,1.7
2022-08-12T18:36:14.451Z,1.15
2022-08-12T18:39:19.612Z,1.3
2022-08-12T18:42:14.257Z,1.3
2022-08-12T18:45:13.961Z,1.15
2022-08-12T18:48:14.013Z,1.95
2022-08-12T18:51:21.809Z,1.15
2022-08-12T18:54:21.034Z,1.4
2022-08-12T18:57:20.100Z,1.25
2022-08-12T19:00:13.969Z,1
2022-08-12T19:03:23.492Z,1
2022-08-12T19:06:17.136Z,1.15
2022-08-12T19:09:14.030Z,0.95
2022-08-12T19:12:20.260Z,1.4
2022-08-12T19:15:13.996Z,1.15
2022-08-12T19:18:14.251Z,0.7
2022-08-12T19:21:20.159Z,0.8
2022-08-12T19:24:16.330Z,0.7
2022-08-12T19:27:16.349Z,0.5
2022-08-12T19:30:14.054Z,0.45
2022-08-12T19:33:16.051Z,0.55
2022-08-12T19:36:24.216Z,0.55
2022-08-12T19:39:22.840Z,0.6
2022-08-12T19:42:17.737Z,0.5
2022-08-12T19:45:14.105Z,0.55
2022-08-12T19:48:18.028Z,0.8
2022-08-12T19:51:22.806Z,0.35
2022-08-12T19:54:14.075Z,0.65
2022-08-12T19:57:14.741Z,0.6
2022-08-12T20:00:14.069Z,0.55
2022-08-12T20:03:37.612Z,0.8
2022-08-12T20:06:22.076Z,0.6
2022-08-12T20:09:14.099Z,1
2022-08-12T20:12:22.626Z,1.6
2022-08-12T20:15:14.716Z,0.75
2022-08-12T20:18:44.010Z,1.45
2022-08-12T20:21:17.024Z,0.95
2022-08-12T20:24:15.075Z,1.05
2022-08-12T20:27:28.860Z,0.7
2022-08-12T20:30:14.235Z,0.8
2022-08-12T20:33:23.037Z,0.6
2022-08-12T20:36:40.402Z,0.55
2022-08-12T20:39:35.989Z,0.75
2022-08-12T20:42:16.229Z,0.65
2022-08-12T20:45:15.215Z,0.7
2022-08-12T20:48:14.851Z,0.65
2022-08-12T20:51:19.501Z,0.8
2022-08-12T20:54:14.121Z,0.5
2022-08-12T20:57:17.861Z,0.6
2022-08-12T21:00:14.767Z,0.7
2022-08-12T21:03:14.314Z,0.75
2022-08-12T21:06:15.136Z,0.6
2022-08-12T21:09:18.450Z,0.25
2022-08-12T21:12:24.905Z,0.45
2022-08-12T21:15:23.250Z,0.2
2022-08-12T21:18:22.649Z,0.35
2022-08-12T21:21:23.044Z,0.45
2022-08-12T21:24:14.449Z,0.45
2022-08-12T21:27:18.155Z,0.35
2022-08-12T21:30:14.281Z,0.4
2022-08-12T21:33:16.912Z,0.4
2022-08-12T21:36:22.979Z,0.5
2022-08-12T21:39:21.542Z,0.4
2022-08-12T21:42:14.244Z,0.4
2022-08-12T21:45:44.936Z,0.55
2022-08-12T21:48:17.390Z,0.4
2022-08-12T21:51:22.909Z,0.65
2022-08-12T21:54:21.784Z,0.55
2022-08-12T21:57:14.163Z,0.6
2022-08-12T22:00:18.478Z,0.35
2022-08-12T22:03:20.319Z,0.75
2022-08-12T22:06:20.196Z,0.55
2022-08-12T22:09:17.764Z,0.75
2022-08-12T22:12:20.433Z,0.75
2022-08-12T22:15:21.260Z,0.65
2022-08-12T22:18:16.926Z,0.7
2022-08-12T22:21:16.068Z,0.7
2022-08-12T22:24:26.089Z,0.65
2022-08-12T22:27:32.117Z,0.45
2022-08-12T22:30:19.692Z,0.75
2022-08-12T22:33:19.123Z,0.45
2022-08-12T22:36:16.006Z,0.7
2022-08-12T22:39:16.759Z,0.4
2022-08-12T22:42:19.868Z,0.55
2022-08-12T22:45:16.890Z,0.7
2022-08-12T22:48:26.382Z,0.45
2022-08-12T22:51:15.137Z,0.3
2022-08-12T22:54:36.515Z,0.65
2022-08-12T22:57:14.211Z,0.55
2022-08-12T23:00:23.793Z,0.6
2022-08-12T23:03:47.614Z,0.6
2022-08-12T23:06:14.562Z,0.45
2022-08-12T23:09:17.045Z,0.45
2022-08-12T23:12:22.524Z,0.45
2022-08-12T23:15:14.179Z,0.15
2022-08-12T23:18:17.569Z,0.1
2022-08-12T23:21:17.479Z,0.25
2022-08-12T23:24:17.891Z,0.4
2022-08-12T23:27:14.264Z,0.3
2022-08-12T23:30:24.879Z,0.35
2022-08-12T23:33:20.351Z,0.4
2022-08-12T23:36:29.753Z,0.25
2022-08-12T23:40:07.019Z,0.25
2022-08-12T23:42:19.239Z,0.2
2022-08-12T23:45:20.847Z,0.25
2022-08-12T23:48:22.737Z,0.2
2022-08-12T23:51:21.818Z,0.2
2022-08-12T23:54:32.949Z,0.15
2022-08-12T23:57:14.597Z,0.25
